createdAt,value
2018-12-24T00:00:36.063Z,1005.98
2018-12-24T00:01:36.075Z,1005.97
2018-12-24T00:02:36.087Z,1006.00
2018-12-24T00:03:36.104Z,1006.00
2018-12-24T00:04:36.114Z,1006.02
2018-12-24T00:05:36.128Z,1005.99
2018-12-24T00:06:36.141Z,1006.00
2018-12-24T00:07:36.155Z,1005.98
2018-12-24T00:08:36.181Z,1006.01
2018-12-24T00:09:36.182Z,1005.99
2018-12-24T00:10:36.195Z,1006.01
2018-12-24T00:11:36.210Z,1006.02
2018-12-24T00:12:36.222Z,1006.01
2018-12-24T00:13:36.304Z,1006.02
2018-12-24T00:14:36.250Z,1006.02
2018-12-24T00:15:36.269Z,1006.05
2018-12-24T00:16:36.276Z,1006.06
2018-12-24T00:17:36.291Z,1006.03
2018-12-24T00:18:36.306Z,1006.09
2018-12-24T00:19:36.323Z,1006.08
2018-12-24T00:20:36.330Z,1006.08
2018-12-24T00:21:36.345Z,1006.09
2018-12-24T00:22:36.357Z,1006.07
2018-12-24T00:23:36.372Z,1006.08
2018-12-24T00:24:36.384Z,1006.07
2018-12-24T00:25:36.402Z,1006.09
2018-12-24T00:26:36.411Z,1006.09
2018-12-24T00:27:36.425Z,1006.13
2018-12-24T00:28:36.438Z,1006.11
2018-12-24T00:29:36.452Z,1006.12
2018-12-24T00:30:36.465Z,1006.21
2018-12-24T00:31:36.479Z,1006.18
2018-12-24T00:32:36.506Z,1006.19
2018-12-24T00:33:36.506Z,1006.23
2018-12-24T00:34:36.522Z,1006.21
2018-12-24T00:35:36.533Z,1006.27
2018-12-24T00:36:36.546Z,1006.26
2018-12-24T00:37:36.560Z,1006.29
2018-12-24T00:38:36.573Z,1006.28
2018-12-24T00:39:36.590Z,1006.32
2018-12-24T00:40:36.601Z,1006.28
2018-12-24T00:41:36.615Z,1006.31
2018-12-24T00:42:36.628Z,1006.32
2018-12-24T00:43:36.642Z,1006.33
2018-12-24T00:44:36.656Z,1006.32
2018-12-24T00:45:36.695Z,1006.29
2018-12-24T00:46:36.682Z,1006.30
2018-12-24T00:47:36.719Z,1006.31
2018-12-24T00:48:36.722Z,1006.33
2018-12-24T00:49:36.734Z,1006.38
2018-12-24T00:50:36.749Z,1006.37
2018-12-24T00:51:36.761Z,1006.44
2018-12-24T00:52:36.777Z,1006.37
2018-12-24T00:53:36.789Z,1006.43
2018-12-24T00:54:36.802Z,1006.45
2018-12-24T00:55:36.817Z,1006.49
2018-12-24T00:56:36.830Z,1006.49
2018-12-24T00:57:36.843Z,1006.53
2018-12-24T00:58:36.845Z,1006.58
2018-12-24T00:59:36.882Z,1006.59
2018-12-24T01:00:36.883Z,1006.59
2018-12-24T01:01:36.901Z,1006.64
2018-12-24T01:02:36.900Z,1006.68
2018-12-24T01:03:36.916Z,1006.66
2018-12-24T01:04:36.925Z,1006.72
2018-12-24T01:05:36.939Z,1006.73
2018-12-24T01:06:36.951Z,1006.78
2018-12-24T01:07:36.968Z,1006.80
2018-12-24T01:08:36.980Z,1006.85
2018-12-24T01:09:36.994Z,1006.83
2018-12-24T01:10:37.005Z,1006.89
2018-12-24T01:11:37.020Z,1006.94
2018-12-24T01:12:37.032Z,1006.87
2018-12-24T01:13:37.047Z,1006.94
2018-12-24T01:14:37.063Z,1006.98
2018-12-24T01:15:37.077Z,1006.95
2018-12-24T01:16:37.086Z,1007.02
2018-12-24T01:17:37.100Z,1007.02
2018-12-24T01:18:37.119Z,1007.08
2018-12-24T01:19:37.129Z,1007.10
2018-12-24T01:20:37.141Z,1007.07
2018-12-24T01:21:37.155Z,1007.13
2018-12-24T01:22:37.168Z,1007.14
2018-12-24T01:23:37.185Z,1007.16
2018-12-24T01:24:37.194Z,1007.16
2018-12-24T01:25:37.210Z,1007.16
2018-12-24T01:26:37.221Z,1007.17
2018-12-24T01:27:37.224Z,1007.18
2018-12-24T01:28:37.238Z,1007.22
2018-12-24T01:29:37.250Z,1007.19
2018-12-24T01:30:37.264Z,1007.19
2018-12-24T01:31:37.277Z,1007.19
2018-12-24T01:32:37.292Z,1007.18
2018-12-24T01:33:37.317Z,1007.23
2018-12-24T01:34:37.317Z,1007.22
2018-12-24T01:35:37.331Z,1007.27
2018-12-24T01:36:37.345Z,1007.27
2018-12-24T01:37:37.357Z,1007.28
2018-12-24T01:38:37.372Z,1007.26
2018-12-24T01:39:37.385Z,1007.32
2018-12-24T01:40:37.389Z,1007.29
2018-12-24T01:41:37.411Z,1007.29
2018-12-24T01:42:37.413Z,1007.38
2018-12-24T01:43:37.426Z,1007.36
2018-12-24T01:44:37.442Z,1007.37
2018-12-24T01:45:37.453Z,1007.35
2018-12-24T01:46:37.466Z,1007.33
2018-12-24T01:47:37.482Z,1007.29
2018-12-24T01:48:37.508Z,1007.28
2018-12-24T01:49:37.507Z,1007.33
2018-12-24T01:50:37.520Z,1007.32
2018-12-24T01:51:37.534Z,1007.27
2018-12-24T01:52:37.536Z,1007.27
2018-12-24T01:53:37.561Z,1007.28
2018-12-24T01:54:37.562Z,1007.26
2018-12-24T01:55:37.575Z,1007.29
2018-12-24T01:56:37.589Z,1007.33
2018-12-24T01:57:37.602Z,1007.38
2018-12-24T01:58:37.619Z,1007.36
2018-12-24T01:59:37.629Z,1007.38
2018-12-24T02:00:37.643Z,1007.40
2018-12-24T02:01:37.656Z,1007.41
2018-12-24T02:02:37.671Z,1007.44
2018-12-24T02:03:37.697Z,1007.44
2018-12-24T02:04:37.685Z,1007.45
2018-12-24T02:05:37.699Z,1007.47
2018-12-24T02:06:37.711Z,1007.46
2018-12-24T02:07:37.725Z,1007.49
2018-12-24T02:08:37.738Z,1007.49
2018-12-24T02:09:37.752Z,1007.48
2018-12-24T02:10:37.765Z,1007.49
2018-12-24T02:11:37.780Z,1007.48
2018-12-24T02:12:42.258Z,1007.49
2018-12-24T02:13:37.806Z,1007.53
2018-12-24T02:14:37.818Z,1007.56
2018-12-24T02:15:37.833Z,1007.52
2018-12-24T02:16:37.835Z,1007.58
2018-12-24T02:17:37.847Z,1007.61
2018-12-24T02:18:37.861Z,1007.63
2018-12-24T02:19:37.874Z,1007.63
2018-12-24T02:20:37.888Z,1007.68
2018-12-24T02:21:37.900Z,1007.71
2018-12-24T02:22:37.916Z,1007.74
2018-12-24T02:23:37.928Z,1007.74
2018-12-24T02:24:37.942Z,1007.78
2018-12-24T02:25:37.955Z,1007.82
2018-12-24T02:26:37.956Z,1007.84
2018-12-24T02:27:37.970Z,1007.84
2018-12-24T02:28:37.983Z,1007.86
2018-12-24T02:29:37.997Z,1007.88
2018-12-24T02:30:38.011Z,1007.93
2018-12-24T02:31:38.025Z,1007.92
2018-12-24T02:32:38.037Z,1007.93
2018-12-24T02:33:38.052Z,1007.93
2018-12-24T02:34:38.070Z,1007.97
2018-12-24T02:35:38.068Z,1008.00
2018-12-24T02:36:38.078Z,1008.05
2018-12-24T02:37:38.107Z,1008.02
2018-12-24T02:38:38.113Z,1008.08
2018-12-24T02:39:38.121Z,1008.02
2018-12-24T02:40:38.132Z,1008.08
2018-12-24T02:41:38.152Z,1008.11
2018-12-24T02:42:38.161Z,1008.09
2018-12-24T02:43:38.172Z,1008.13
2018-12-24T02:44:38.191Z,1008.12
2018-12-24T02:45:38.201Z,1008.14
2018-12-24T02:46:38.201Z,1008.16
2018-12-24T02:47:38.215Z,1008.18
2018-12-24T02:48:38.234Z,1008.17
2018-12-24T02:49:38.243Z,1008.17
2018-12-24T02:50:38.256Z,1008.17
2018-12-24T02:51:38.269Z,1008.21
2018-12-24T02:52:38.297Z,1008.25
2018-12-24T02:53:38.296Z,1008.25
2018-12-24T02:54:38.297Z,1008.30
2018-12-24T02:55:38.311Z,1008.30
2018-12-24T02:56:38.325Z,1008.37
2018-12-24T02:57:38.338Z,1008.41
2018-12-24T02:58:38.351Z,1008.46
2018-12-24T02:59:38.367Z,1008.44
2018-12-24T03:00:38.380Z,1008.51
2018-12-24T03:01:38.393Z,1008.48
2018-12-24T03:02:38.406Z,1008.54
2018-12-24T03:03:38.418Z,1008.60
2018-12-24T03:04:38.421Z,1008.58
2018-12-24T03:05:38.439Z,1008.63
2018-12-24T03:06:38.447Z,1008.68
2018-12-24T03:07:38.460Z,1008.68
2018-12-24T03:08:38.473Z,1008.69
2018-12-24T03:09:38.488Z,1008.70
2018-12-24T03:10:38.501Z,1008.74
2018-12-24T03:11:38.514Z,1008.73
2018-12-24T03:12:38.673Z,1008.73
2018-12-24T03:13:38.530Z,1008.72
2018-12-24T03:14:38.543Z,1008.83
2018-12-24T03:15:38.555Z,1008.80
2018-12-24T03:16:38.569Z,1008.81
2018-12-24T03:17:38.587Z,1008.85
2018-12-24T03:18:38.597Z,1008.87
2018-12-24T03:19:38.610Z,1008.86
2018-12-24T03:20:38.626Z,1008.91
2018-12-24T03:21:38.625Z,1008.95
2018-12-24T03:22:38.639Z,1008.91
2018-12-24T03:23:38.651Z,1009.00
2018-12-24T03:24:38.665Z,1009.03
2018-12-24T03:25:38.679Z,1009.00
2018-12-24T03:26:38.691Z,1009.01
2018-12-24T03:27:38.706Z,1009.07
2018-12-24T03:28:38.720Z,1009.07
2018-12-24T03:29:38.722Z,1009.07
2018-12-24T03:30:38.736Z,1009.11
2018-12-24T03:31:38.751Z,1009.13
2018-12-24T03:32:38.762Z,1009.17
2018-12-24T03:33:38.776Z,1009.20
2018-12-24T03:34:38.788Z,1009.18
2018-12-24T03:35:38.807Z,1009.11
2018-12-24T03:36:38.815Z,1009.11
2018-12-24T03:37:38.816Z,1009.10
2018-12-24T03:38:38.828Z,1009.15
2018-12-24T03:39:38.843Z,1009.19
2018-12-24T03:40:38.858Z,1009.14
2018-12-24T03:41:38.870Z,1009.19
2018-12-24T03:42:38.883Z,1009.25
2018-12-24T03:43:38.896Z,1009.22
2018-12-24T03:44:38.909Z,1009.30
2018-12-24T03:45:38.913Z,1009.28
2018-12-24T03:46:38.925Z,1009.31
2018-12-24T03:47:38.955Z,1009.31
2018-12-24T03:48:38.951Z,1009.36
2018-12-24T03:49:38.965Z,1009.35
2018-12-24T03:50:38.978Z,1009.39
2018-12-24T03:51:38.993Z,1009.41
2018-12-24T03:52:38.994Z,1009.45
2018-12-24T03:53:39.007Z,1009.48
2018-12-24T03:54:39.025Z,1009.51
2018-12-24T03:55:39.036Z,1009.49
2018-12-24T03:56:39.049Z,1009.56
2018-12-24T03:57:39.060Z,1009.56
2018-12-24T03:58:39.075Z,1009.58
2018-12-24T03:59:39.094Z,1009.58
2018-12-24T04:00:39.101Z,1009.60
2018-12-24T04:01:39.102Z,1009.65
2018-12-24T04:02:39.117Z,1009.67
2018-12-24T04:03:39.132Z,1009.69
2018-12-24T04:04:39.142Z,1009.72
2018-12-24T04:05:39.155Z,1009.75
2018-12-24T04:06:39.170Z,1009.71
2018-12-24T04:07:39.183Z,1009.75
2018-12-24T04:08:39.196Z,1009.76
2018-12-24T04:09:39.198Z,1009.81
2018-12-24T04:10:39.210Z,1009.80
2018-12-24T04:11:39.226Z,1009.85
2018-12-24T04:12:39.239Z,1009.86
2018-12-24T04:13:39.252Z,1009.89
2018-12-24T04:14:39.266Z,1009.84
2018-12-24T04:15:39.281Z,1009.92
2018-12-24T04:16:39.292Z,1009.99
2018-12-24T04:17:39.294Z,1009.98
2018-12-24T04:18:39.306Z,1010.04
2018-12-24T04:19:39.332Z,1010.04
2018-12-24T04:20:39.334Z,1010.04
2018-12-24T04:21:39.347Z,1010.07
2018-12-24T04:22:39.362Z,1010.13
2018-12-24T04:23:39.377Z,1010.12
2018-12-24T04:24:39.379Z,1010.17
2018-12-24T04:25:39.390Z,1010.20
2018-12-24T04:26:39.401Z,1010.27
2018-12-24T04:27:41.829Z,1010.31
2018-12-24T04:28:39.428Z,1010.42
2018-12-24T04:29:39.454Z,1010.45
2018-12-24T04:30:39.456Z,1010.34
2018-12-24T04:31:39.458Z,1010.42
2018-12-24T04:32:39.472Z,1010.48
2018-12-24T04:33:39.485Z,1010.43
2018-12-24T04:34:39.498Z,1010.49
2018-12-24T04:35:39.511Z,1010.57
2018-12-24T04:36:39.526Z,1010.51
2018-12-24T04:37:39.538Z,1010.55
2018-12-24T04:38:39.540Z,1010.59
2018-12-24T04:39:39.555Z,1010.61
2018-12-24T04:40:39.568Z,1010.60
2018-12-24T04:41:39.580Z,1010.67
2018-12-24T04:42:39.613Z,1010.68
2018-12-24T04:43:39.613Z,1010.73
2018-12-24T04:44:39.610Z,1010.82
2018-12-24T04:45:39.624Z,1010.79
2018-12-24T04:46:39.636Z,1010.89
2018-12-24T04:47:39.666Z,1010.92
2018-12-24T04:48:39.674Z,1010.98
2018-12-24T04:49:39.675Z,1011.00
2018-12-24T04:50:39.677Z,1011.08
2018-12-24T04:51:39.691Z,1011.07
2018-12-24T04:52:39.704Z,1011.22
2018-12-24T04:53:39.718Z,1011.22
2018-12-24T04:54:39.732Z,1011.23
2018-12-24T04:55:39.745Z,1011.26
2018-12-24T04:56:39.758Z,1011.31
2018-12-24T04:57:39.759Z,1011.34
2018-12-24T04:58:39.772Z,1011.41
2018-12-24T04:59:39.785Z,1011.32
2018-12-24T05:00:39.810Z,1011.44
2018-12-24T05:01:39.812Z,1011.45
2018-12-24T05:02:39.813Z,1011.46
2018-12-24T05:03:39.831Z,1011.48
2018-12-24T05:04:39.841Z,1011.53
2018-12-24T05:05:39.855Z,1011.64
2018-12-24T05:06:39.867Z,1011.67
2018-12-24T05:07:39.868Z,1011.74
2018-12-24T05:08:39.886Z,1011.69
2018-12-24T05:09:39.902Z,1011.72
2018-12-24T05:10:39.912Z,1011.74
2018-12-24T05:11:39.923Z,1011.72
2018-12-24T05:12:39.925Z,1011.82
2018-12-24T05:13:40.959Z,1011.89
2018-12-24T05:14:39.951Z,1011.85
2018-12-24T05:15:39.964Z,1011.89
2018-12-24T05:16:39.978Z,1011.93
2018-12-24T05:17:39.980Z,1012.00
2018-12-24T05:18:39.993Z,1012.00
2018-12-24T05:19:40.006Z,1012.03
2018-12-24T05:20:40.024Z,1012.10
2018-12-24T05:21:40.046Z,1012.09
2018-12-24T05:22:40.035Z,1012.11
2018-12-24T05:23:40.048Z,1012.07
2018-12-24T05:24:40.073Z,1012.11
2018-12-24T05:25:40.075Z,1012.19
2018-12-24T05:26:40.088Z,1012.14
2018-12-24T05:27:40.102Z,1012.22
2018-12-24T05:28:40.102Z,1012.21
2018-12-24T05:29:40.116Z,1012.26
2018-12-24T05:30:40.130Z,1012.28
2018-12-24T05:31:40.148Z,1012.32
2018-12-24T05:32:40.158Z,1012.31
2018-12-24T05:33:40.158Z,1012.37
2018-12-24T05:34:40.172Z,1012.39
2018-12-24T05:35:40.185Z,1012.39
2018-12-24T05:36:40.199Z,1012.46
2018-12-24T05:37:40.213Z,1012.41
2018-12-24T05:38:40.225Z,1012.55
2018-12-24T05:39:40.226Z,1012.57
2018-12-24T05:40:40.241Z,1012.59
2018-12-24T05:41:40.254Z,1012.57
2018-12-24T05:42:40.268Z,1012.67
2018-12-24T05:43:40.269Z,1012.62
2018-12-24T05:44:40.282Z,1012.71
2018-12-24T05:45:40.296Z,1012.79
2018-12-24T05:46:40.309Z,1012.76
2018-12-24T05:47:40.324Z,1012.82
2018-12-24T05:48:40.325Z,1012.84
2018-12-24T05:49:40.337Z,1012.88
2018-12-24T05:50:40.351Z,1012.87
2018-12-24T05:51:40.364Z,1012.89
2018-12-24T05:52:40.380Z,1012.90
2018-12-24T05:53:40.379Z,1012.95
2018-12-24T05:54:40.392Z,1013.05
2018-12-24T05:55:40.406Z,1012.97
2018-12-24T05:56:40.419Z,1013.10
2018-12-24T05:57:40.435Z,1013.08
2018-12-24T05:58:40.435Z,1013.11
2018-12-24T05:59:40.448Z,1013.12
2018-12-24T06:00:40.463Z,1013.14
2018-12-24T06:01:40.474Z,1013.22
2018-12-24T06:02:40.490Z,1013.24
2018-12-24T06:03:40.501Z,1013.31
2018-12-24T06:04:40.502Z,1013.30
2018-12-24T06:05:40.516Z,1013.34
2018-12-24T06:06:40.530Z,1013.39
2018-12-24T06:07:40.545Z,1013.40
2018-12-24T06:08:40.545Z,1013.53
2018-12-24T06:09:40.558Z,1013.49
2018-12-24T06:10:40.573Z,1013.55
2018-12-24T06:11:40.598Z,1013.60
2018-12-24T06:12:40.599Z,1013.63
2018-12-24T06:13:40.600Z,1013.66
2018-12-24T06:14:40.612Z,1013.70
2018-12-24T06:15:40.627Z,1013.73
2018-12-24T06:16:40.640Z,1013.75
2018-12-24T06:17:40.655Z,1013.73
2018-12-24T06:18:40.655Z,1013.91
2018-12-24T06:19:40.673Z,1013.81
2018-12-24T06:20:40.682Z,1013.87
2018-12-24T06:21:40.695Z,1013.88
2018-12-24T06:22:40.698Z,1014.03
2018-12-24T06:23:40.719Z,1013.92
2018-12-24T06:24:40.724Z,1013.97
2018-12-24T06:25:40.738Z,1013.94
2018-12-24T06:26:40.750Z,1014.01
2018-12-24T06:27:40.752Z,1014.04
2018-12-24T06:28:40.767Z,1014.03
2018-12-24T06:29:40.779Z,1014.04
2018-12-24T06:30:40.793Z,1014.04
2018-12-24T06:31:40.797Z,1014.03
2018-12-24T06:32:40.807Z,1014.08
2018-12-24T06:33:40.822Z,1014.20
2018-12-24T06:34:40.833Z,1014.09
2018-12-24T06:35:40.848Z,1014.20
2018-12-24T06:36:40.849Z,1014.18
2018-12-24T06:37:40.875Z,1014.27
2018-12-24T06:38:40.882Z,1014.30
2018-12-24T06:39:40.891Z,1014.32
2018-12-24T06:40:40.890Z,1014.37
2018-12-24T06:41:40.905Z,1014.41
2018-12-24T06:42:40.917Z,1014.48
2018-12-24T06:43:40.932Z,1014.43
2018-12-24T06:44:40.937Z,1014.48
2018-12-24T06:45:40.955Z,1014.48
2018-12-24T06:46:40.959Z,1014.51
2018-12-24T06:47:40.972Z,1014.53
2018-12-24T06:48:40.975Z,1014.57
2018-12-24T06:49:40.992Z,1014.64
2018-12-24T06:50:41.002Z,1014.65
2018-12-24T06:51:41.014Z,1014.69
2018-12-24T06:52:41.027Z,1014.69
2018-12-24T06:53:41.029Z,1014.74
2018-12-24T06:54:41.043Z,1014.73
2018-12-24T06:55:41.056Z,1014.78
2018-12-24T06:56:41.069Z,1014.92
2018-12-24T06:57:41.070Z,1014.79
2018-12-24T06:58:41.096Z,1014.88
2018-12-24T06:59:41.098Z,1014.90
2018-12-24T07:00:41.113Z,1014.96
2018-12-24T07:01:41.112Z,1014.99
2018-12-24T07:02:41.126Z,1015.03
2018-12-24T07:03:41.139Z,1015.10
2018-12-24T07:04:41.159Z,1015.06
2018-12-24T07:05:41.191Z,1015.12
2018-12-24T07:06:41.167Z,1015.08
2018-12-24T07:07:41.181Z,1015.07
2018-12-24T07:08:41.194Z,1015.16
2018-12-24T07:09:41.195Z,1015.15
2018-12-24T07:10:41.210Z,1015.14
2018-12-24T07:11:41.223Z,1015.19
2018-12-24T07:12:41.236Z,1015.24
2018-12-24T07:13:41.236Z,1015.30
2018-12-24T07:14:41.250Z,1015.33
2018-12-24T07:15:41.265Z,1015.36
2018-12-24T07:16:41.309Z,1015.41
2018-12-24T07:17:41.279Z,1015.38
2018-12-24T07:18:41.293Z,1015.50
2018-12-24T07:19:41.305Z,1015.43
2018-12-24T07:20:41.319Z,1015.39
2018-12-24T07:21:41.322Z,1015.47
2018-12-24T07:22:41.334Z,1015.49
2018-12-24T07:23:41.347Z,1015.51
2018-12-24T07:24:41.373Z,1015.53
2018-12-24T07:25:41.364Z,1015.60
2018-12-24T07:26:41.376Z,1015.64
2018-12-24T07:27:41.389Z,1015.65
2018-12-24T07:28:41.404Z,1015.72
2018-12-24T07:29:41.404Z,1015.74
2018-12-24T07:30:41.432Z,1015.78
2018-12-24T07:31:41.431Z,1015.85
2018-12-24T07:32:41.458Z,1015.87
2018-12-24T07:33:41.454Z,1015.89
2018-12-24T07:34:41.458Z,1015.93
2018-12-24T07:35:41.472Z,1015.94
2018-12-24T07:36:41.486Z,1015.99
2018-12-24T07:37:41.500Z,1015.97
2018-12-24T07:38:41.501Z,1016.02
2018-12-24T07:39:41.515Z,1016.08
2018-12-24T07:40:41.527Z,1016.09
2018-12-24T07:41:41.544Z,1016.15
2018-12-24T07:42:41.544Z,1016.16
2018-12-24T07:43:41.556Z,1016.16
2018-12-24T07:44:41.570Z,1016.20
2018-12-24T07:45:41.582Z,1016.22
2018-12-24T07:46:41.583Z,1016.25
2018-12-24T07:47:41.598Z,1016.31
2018-12-24T07:48:41.610Z,1016.36
2018-12-24T07:49:41.625Z,1016.40
2018-12-24T07:50:41.729Z,1016.41
2018-12-24T07:51:41.651Z,1016.42
2018-12-24T07:52:41.659Z,1016.49
2018-12-24T07:53:41.666Z,1016.51
2018-12-24T07:54:41.666Z,1016.62
2018-12-24T07:55:41.680Z,1016.60
2018-12-24T07:56:41.694Z,1016.66
2018-12-24T07:57:41.707Z,1016.71
2018-12-24T07:58:41.710Z,1016.74
2018-12-24T07:59:41.724Z,1016.88
2018-12-24T08:00:41.736Z,1016.86
2018-12-24T08:01:41.748Z,1016.81
2018-12-24T08:02:41.750Z,1016.89
2018-12-24T08:03:41.767Z,1016.93
2018-12-24T08:04:41.779Z,1016.99
2018-12-24T08:05:41.790Z,1016.95
2018-12-24T08:06:41.793Z,1017.01
2018-12-24T08:07:41.804Z,1017.04
2018-12-24T08:08:41.821Z,1017.05
2018-12-24T08:09:41.832Z,1017.12
2018-12-24T08:10:41.833Z,1017.16
2018-12-24T08:11:41.849Z,1017.16
2018-12-24T08:12:41.860Z,1017.20
2018-12-24T08:13:41.874Z,1017.27
2018-12-24T08:14:41.879Z,1017.25
2018-12-24T08:15:41.888Z,1017.29
2018-12-24T08:16:41.902Z,1017.30
2018-12-24T08:17:41.929Z,1017.39
2018-12-24T08:18:41.929Z,1017.41
2018-12-24T08:19:41.930Z,1017.47
2018-12-24T08:20:41.943Z,1017.48
2018-12-24T08:21:41.948Z,1017.59
2018-12-24T08:22:41.960Z,1017.54
2018-12-24T08:23:41.971Z,1017.58
2018-12-24T08:24:41.987Z,1017.56
2018-12-24T08:25:41.987Z,1017.61
2018-12-24T08:26:42.000Z,1017.61
2018-12-24T08:27:42.014Z,1017.64
2018-12-24T08:28:42.027Z,1017.69
2018-12-24T08:29:42.028Z,1017.55
2018-12-24T08:30:42.041Z,1017.72
2018-12-24T08:31:42.055Z,1017.72
2018-12-24T08:32:42.070Z,1017.74
2018-12-24T08:33:42.377Z,1017.75
2018-12-24T08:34:42.082Z,1017.75
2018-12-24T08:35:42.098Z,1017.81
2018-12-24T08:36:42.206Z,1017.81
2018-12-24T08:37:42.111Z,1017.85
2018-12-24T08:38:42.125Z,1017.84
2018-12-24T08:39:42.138Z,1017.97
2018-12-24T08:40:42.140Z,1018.02
2018-12-24T08:41:42.153Z,1017.95
2018-12-24T08:42:42.166Z,1018.01
2018-12-24T08:43:42.182Z,1018.01
2018-12-24T08:44:42.250Z,1018.09
2018-12-24T08:45:42.195Z,1018.13
2018-12-24T08:46:42.209Z,1018.10
2018-12-24T08:47:42.316Z,1018.15
2018-12-24T08:48:42.222Z,1018.10
2018-12-24T08:49:42.237Z,1018.17
2018-12-24T08:50:42.262Z,1018.15
2018-12-24T08:51:42.251Z,1018.19
2018-12-24T08:52:42.264Z,1018.25
2018-12-24T08:53:42.278Z,1018.25
2018-12-24T08:54:42.291Z,1018.23
2018-12-24T08:55:42.293Z,1018.20
2018-12-24T08:56:42.307Z,1018.27
2018-12-24T08:57:42.319Z,1018.22
2018-12-24T08:58:42.321Z,1018.28
2018-12-24T08:59:42.334Z,1018.27
2018-12-24T09:00:42.355Z,1018.30
2018-12-24T09:01:42.361Z,1018.37
2018-12-24T09:02:42.362Z,1018.33
2018-12-24T09:03:42.380Z,1018.36
2018-12-24T09:04:42.390Z,1018.39
2018-12-24T09:05:42.406Z,1018.37
2018-12-24T09:06:42.405Z,1018.36
2018-12-24T09:07:42.417Z,1018.43
2018-12-24T09:08:42.431Z,1018.46
2018-12-24T09:09:42.444Z,1018.50
2018-12-24T09:10:42.446Z,1018.49
2018-12-24T09:11:42.459Z,1018.51
2018-12-24T09:12:42.472Z,1018.55
2018-12-24T09:13:42.474Z,1018.59
2018-12-24T09:14:50.049Z,1018.61
2018-12-24T09:15:42.501Z,1018.46
2018-12-24T09:16:42.515Z,1018.52
2018-12-24T09:17:42.549Z,1018.53
2018-12-24T09:18:42.529Z,1018.54
2018-12-24T09:19:42.549Z,1018.59
2018-12-24T09:20:42.569Z,1018.58
2018-12-24T09:21:42.557Z,1018.58
2018-12-24T09:22:42.571Z,1018.66
2018-12-24T09:23:42.584Z,1018.71
2018-12-24T09:24:42.585Z,1018.70
2018-12-24T09:25:42.599Z,1018.72
2018-12-24T09:26:42.613Z,1018.74
2018-12-24T09:27:42.629Z,1018.77
2018-12-24T09:28:42.627Z,1018.80
2018-12-24T09:29:42.641Z,1018.83
2018-12-24T09:30:42.663Z,1018.84
2018-12-24T09:31:42.668Z,1018.83
2018-12-24T09:32:42.669Z,1018.89
2018-12-24T09:33:42.683Z,1018.92
2018-12-24T09:34:42.695Z,1018.91
2018-12-24T09:35:42.698Z,1018.91
2018-12-24T09:36:42.711Z,1018.94
2018-12-24T09:37:42.725Z,1018.96
2018-12-24T09:38:42.740Z,1018.95
2018-12-24T09:39:42.739Z,1018.92
2018-12-24T09:40:42.751Z,1018.93
2018-12-24T09:41:42.766Z,1018.96
2018-12-24T09:42:42.779Z,1019.01
2018-12-24T09:43:42.780Z,1019.06
2018-12-24T09:44:42.794Z,1019.03
2018-12-24T09:45:42.808Z,1019.05
2018-12-24T09:46:42.821Z,1019.07
2018-12-24T09:47:42.823Z,1019.03
2018-12-24T09:48:42.835Z,1019.08
2018-12-24T09:49:42.849Z,1019.05
2018-12-24T09:50:42.869Z,1019.11
2018-12-24T09:51:42.864Z,1019.13
2018-12-24T09:52:42.879Z,1019.11
2018-12-24T09:53:42.890Z,1019.15
2018-12-24T09:54:42.907Z,1019.14
2018-12-24T09:55:42.906Z,1019.23
2018-12-24T09:56:42.919Z,1019.10
2018-12-24T09:57:42.936Z,1019.16
2018-12-24T09:58:42.950Z,1019.16
2018-12-24T09:59:42.960Z,1019.17
2018-12-24T10:00:42.960Z,1019.14
2018-12-24T10:01:42.976Z,1019.16
2018-12-24T10:02:42.988Z,1019.25
2018-12-24T10:03:43.001Z,1019.22
2018-12-24T10:04:43.002Z,1019.23
2018-12-24T10:05:43.016Z,1019.26
2018-12-24T10:06:43.032Z,1019.22
2018-12-24T10:07:43.043Z,1019.26
2018-12-24T10:08:43.044Z,1019.28
2018-12-24T10:09:43.057Z,1019.31
2018-12-24T10:10:43.071Z,1019.31
2018-12-24T10:11:43.085Z,1019.34
2018-12-24T10:12:43.086Z,1019.28
2018-12-24T10:13:43.099Z,1019.27
2018-12-24T10:14:43.112Z,1019.36
2018-12-24T10:15:44.735Z,1019.36
2018-12-24T10:16:43.139Z,1019.35
2018-12-24T10:17:43.141Z,1019.35
2018-12-24T10:18:43.154Z,1019.34
2018-12-24T10:19:43.167Z,1019.40
2018-12-24T10:20:43.181Z,1019.38
2018-12-24T10:21:43.182Z,1019.42
2018-12-24T10:22:43.196Z,1019.42
2018-12-24T10:23:43.212Z,1019.40
2018-12-24T10:24:43.224Z,1019.41
2018-12-24T10:25:43.237Z,1019.41
2018-12-24T10:26:43.237Z,1019.42
2018-12-24T10:27:43.251Z,1019.49
2018-12-24T10:28:43.265Z,1019.45
2018-12-24T10:29:43.277Z,1019.44
2018-12-24T10:30:43.279Z,1019.51
2018-12-24T10:31:43.294Z,1019.51
2018-12-24T10:32:43.307Z,1019.51
2018-12-24T10:33:43.320Z,1019.53
2018-12-24T10:34:43.325Z,1019.53
2018-12-24T10:35:43.334Z,1019.54
2018-12-24T10:36:43.349Z,1019.53
2018-12-24T10:37:43.379Z,1019.58
2018-12-24T10:38:43.376Z,1019.58
2018-12-24T10:39:43.376Z,1019.56
2018-12-24T10:40:43.389Z,1019.52
2018-12-24T10:41:43.403Z,1019.55
2018-12-24T10:42:43.416Z,1019.55
2018-12-24T10:43:43.420Z,1019.61
2018-12-24T10:44:43.431Z,1019.64
2018-12-24T10:45:43.444Z,1019.57
2018-12-24T10:46:43.459Z,1019.57
2018-12-24T10:47:43.470Z,1019.66
2018-12-24T10:48:43.472Z,1019.61
2018-12-24T10:49:43.488Z,1019.63
2018-12-24T10:50:43.502Z,1019.70
2018-12-24T10:51:43.513Z,1019.63
2018-12-24T10:52:43.548Z,1019.67
2018-12-24T10:53:43.527Z,1019.67
2018-12-24T10:54:43.545Z,1019.65
2018-12-24T10:55:43.554Z,1019.73
2018-12-24T10:56:43.568Z,1019.65
2018-12-24T10:57:43.569Z,1019.67
2018-12-24T10:58:43.583Z,1019.72
2018-12-24T10:59:43.597Z,1019.73
2018-12-24T11:00:43.610Z,1019.70
2018-12-24T11:01:44.722Z,1019.69
2018-12-24T11:02:43.627Z,1019.74
2018-12-24T11:03:43.650Z,1019.81
2018-12-24T11:04:43.652Z,1019.77
2018-12-24T11:05:43.665Z,1019.84
2018-12-24T11:06:43.678Z,1019.85
2018-12-24T11:07:43.681Z,1019.85
2018-12-24T11:08:43.693Z,1019.87
2018-12-24T11:09:43.707Z,1019.84
2018-12-24T11:10:43.709Z,1019.93
2018-12-24T11:11:43.723Z,1019.93
2018-12-24T11:12:43.735Z,1019.96
2018-12-24T11:13:43.748Z,1019.97
2018-12-24T11:14:43.751Z,1019.97
2018-12-24T11:15:43.763Z,1019.98
2018-12-24T11:16:43.777Z,1019.99
2018-12-24T11:17:43.791Z,1019.94
2018-12-24T11:18:43.791Z,1019.90
2018-12-24T11:19:43.804Z,1019.95
2018-12-24T11:20:43.818Z,1019.98
2018-12-24T11:21:43.832Z,1019.95
2018-12-24T11:22:43.833Z,1020.00
2018-12-24T11:23:43.846Z,1020.08
2018-12-24T11:24:43.872Z,1020.03
2018-12-24T11:25:43.874Z,1020.01
2018-12-24T11:26:43.886Z,1020.03
2018-12-24T11:27:43.887Z,1020.00
2018-12-24T11:28:43.901Z,1019.93
2018-12-24T11:29:43.928Z,1019.99
2018-12-24T11:30:43.930Z,1019.93
2018-12-24T11:31:43.931Z,1019.93
2018-12-24T11:32:43.943Z,1020.04
2018-12-24T11:33:43.957Z,1019.93
2018-12-24T11:34:43.970Z,1019.94
2018-12-24T11:35:43.972Z,1019.93
2018-12-24T11:36:43.985Z,1019.92
2018-12-24T11:37:43.997Z,1019.91
2018-12-24T11:38:44.012Z,1019.86
2018-12-24T11:39:44.013Z,1019.94
2018-12-24T11:40:44.027Z,1019.90
2018-12-24T11:41:44.039Z,1019.93
2018-12-24T11:42:44.055Z,1019.96
2018-12-24T11:43:44.055Z,1019.89
2018-12-24T11:44:44.067Z,1019.93
2018-12-24T11:45:44.080Z,1019.95
2018-12-24T11:46:44.095Z,1020.02
2018-12-24T11:47:44.096Z,1020.04
2018-12-24T11:48:44.109Z,1020.07
2018-12-24T11:49:44.125Z,1020.03
2018-12-24T11:50:44.149Z,1020.10
2018-12-24T11:51:44.138Z,1020.10
2018-12-24T11:52:44.153Z,1020.13
2018-12-24T11:53:44.164Z,1020.16
2018-12-24T11:54:44.178Z,1020.20
2018-12-24T11:55:44.180Z,1020.13
2018-12-24T11:56:44.205Z,1020.15
2018-12-24T11:57:44.212Z,1020.16
2018-12-24T11:58:44.219Z,1020.13
2018-12-24T11:59:44.221Z,1020.20
2018-12-24T12:00:44.235Z,1020.13
2018-12-24T12:01:44.249Z,1020.16
2018-12-24T12:02:44.261Z,1020.16
2018-12-24T12:03:44.263Z,1020.20
2018-12-24T12:04:44.276Z,1020.21
2018-12-24T12:05:44.289Z,1020.28